createdAt,value
2017-02-23T00:00:14.802Z,97.36
2017-02-23T00:02:30.065Z,97.08
2017-02-23T00:03:11.713Z,96.98
2017-02-23T00:03:53.335Z,97.08
2017-02-23T00:04:34.985Z,97.46
2017-02-23T00:05:16.767Z,97.17
2017-02-23T00:07:37.549Z,97.46
2017-02-23T00:09:52.993Z,98.13
2017-02-23T00:10:34.668Z,97.94
2017-02-23T00:11:16.342Z,97.65
2017-02-23T00:11:58.064Z,97.36
2017-02-23T00:12:39.852Z,97.46
2017-02-23T00:13:21.252Z,97.56
2017-02-23T00:14:02.892Z,97.46
2017-02-23T00:14:44.354Z,97.75
2017-02-23T00:15:26.036Z,97.36
2017-02-23T00:16:07.816Z,97.56
2017-02-23T00:16:49.556Z,97.56
2017-02-23T00:17:31.281Z,97.56
2017-02-23T00:18:13.029Z,97.36
2017-02-23T00:18:54.748Z,97.36
2017-02-23T00:19:36.547Z,97.84
2017-02-23T00:20:18.323Z,96.84
2017-02-23T00:22:39.150Z,96.56
2017-02-23T00:24:33.883Z,96.75
2017-02-23T00:25:15.510Z,96.75
2017-02-23T00:25:57.295Z,96.75
2017-02-23T00:26:39.045Z,96.65
2017-02-23T00:27:20.792Z,96.32
2017-02-23T00:28:02.493Z,96.75
2017-02-23T00:28:44.186Z,96.65
2017-02-23T00:29:25.984Z,96.36
2017-02-23T00:30:07.705Z,96.84
2017-02-23T00:30:49.500Z,96.56
2017-02-23T00:31:31.195Z,96.56
2017-02-23T00:32:12.954Z,96.56
2017-02-23T00:32:54.770Z,96.36
2017-02-23T00:33:36.517Z,96.56
2017-02-23T00:35:57.169Z,96.36
2017-02-23T00:36:38.988Z,96.65
2017-02-23T00:37:20.574Z,96.56
2017-02-23T00:38:02.143Z,96.65
2017-02-23T00:38:43.874Z,96.56
2017-02-23T00:39:25.545Z,96.75
2017-02-23T00:40:07.298Z,96.46
2017-02-23T00:40:49.014Z,96.46
2017-02-23T00:41:30.796Z,96.27
2017-02-23T00:42:12.662Z,96.32
2017-02-23T00:42:54.355Z,96.56
2017-02-23T00:43:36.083Z,97.46
2017-02-23T00:44:17.705Z,97.36
2017-02-23T00:44:59.493Z,96.98
2017-02-23T00:45:41.203Z,97.13
2017-02-23T00:46:22.859Z,97.13
2017-02-23T00:47:04.618Z,97.46
2017-02-23T00:49:25.036Z,97.94
2017-02-23T00:51:19.619Z,97.94
2017-02-23T00:52:01.254Z,97.65
2017-02-23T00:53:55.921Z,97.84
2017-02-23T00:55:50.647Z,98.03
2017-02-23T00:57:45.308Z,98.6
2017-02-23T00:59:34.710Z,98.41
2017-02-23T01:00:16.395Z,98.6
2017-02-23T01:02:36.813Z,98.32
2017-02-23T01:03:18.494Z,98.51
2017-02-23T01:04:00.243Z,98.99
2017-02-23T01:04:42.021Z,98.79
2017-02-23T01:07:02.691Z,98.41
2017-02-23T01:07:44.481Z,98.41
2017-02-23T01:08:25.875Z,98.22
2017-02-23T01:10:41.136Z,99.18
2017-02-23T01:12:56.530Z,98.89
2017-02-23T01:13:38.273Z,98.89
2017-02-23T01:14:20.008Z,99.08
2017-02-23T01:15:01.768Z,99.08
2017-02-23T01:15:43.495Z,98.7
2017-02-23T01:16:25.262Z,98.79
2017-02-23T01:17:07.017Z,98.79
2017-02-23T01:17:48.652Z,99.55
2017-02-23T01:18:30.288Z,99.37
2017-02-23T01:19:11.730Z,99.46
2017-02-23T01:19:53.343Z,99.37
2017-02-23T01:21:53.375Z,99.08
2017-02-23T01:22:35.007Z,99.27
2017-02-23T01:23:16.731Z,99.27
2017-02-23T01:25:37.227Z,99.99
2017-02-23T01:26:18.959Z,99.84
2017-02-23T01:27:00.535Z,99.99
2017-02-23T01:27:42.304Z,98.99
2017-02-23T01:28:24.068Z,98.89
2017-02-23T01:30:39.361Z,98.89
2017-02-23T01:32:28.829Z,99.08
2017-02-23T01:33:10.620Z,99.08
2017-02-23T01:33:52.195Z,99.08
2017-02-23T01:34:33.903Z,99.08
2017-02-23T01:35:15.620Z,98.79
2017-02-23T01:35:57.327Z,98.89
2017-02-23T01:36:38.999Z,99.99
2017-02-23T01:37:20.683Z,99.99
2017-02-23T01:38:02.424Z,99.94
2017-02-23T01:38:44.137Z,99.99
2017-02-23T01:39:25.875Z,99.99
2017-02-23T01:41:20.603Z,99.65
2017-02-23T01:42:02.226Z,99.99
2017-02-23T01:42:43.878Z,99.99
2017-02-23T01:43:25.553Z,99.84
2017-02-23T01:44:07.225Z,99.75
2017-02-23T01:44:48.898Z,99.94
2017-02-23T01:45:30.185Z,99.46
2017-02-23T01:47:24.673Z,99.46
2017-02-23T01:48:06.358Z,99.84
2017-02-23T01:48:48.077Z,99.84
2017-02-23T01:49:29.832Z,99.99
2017-02-23T01:50:11.473Z,99.99
2017-02-23T01:50:52.754Z,99.99
2017-02-23T01:52:47.426Z,99.65
2017-02-23T01:53:28.717Z,99.75
2017-02-23T01:54:10.325Z,99.99
2017-02-23T01:54:52.113Z,99.75
2017-02-23T01:56:41.441Z,99.94
2017-02-23T01:57:23.248Z,99.99
2017-02-23T01:59:38.754Z,99.75
2017-02-23T02:01:38.910Z,99.84
2017-02-23T02:02:20.411Z,99.84
2017-02-23T02:03:00.926Z,99.75
2017-02-23T02:03:41.457Z,99.84
2017-02-23T02:04:21.992Z,99.99
2017-02-23T02:05:02.525Z,99.99
2017-02-23T02:05:43.066Z,99.75
2017-02-23T02:06:23.603Z,99.99
2017-02-23T02:07:04.135Z,99.99
2017-02-23T02:07:44.664Z,99.99
2017-02-23T02:08:25.197Z,99.99
2017-02-23T02:09:05.734Z,99.84
2017-02-23T02:09:46.269Z,99.55
2017-02-23T02:10:26.800Z,99.84
2017-02-23T02:11:07.336Z,99.27
2017-02-23T02:11:47.864Z,99.46
2017-02-23T02:12:28.395Z,99.18
2017-02-23T02:13:08.926Z,98.79
2017-02-23T02:13:49.459Z,98.89
2017-02-23T02:14:29.990Z,99.27
2017-02-23T02:15:10.516Z,98.99
2017-02-23T02:15:51.043Z,98.89
2017-02-23T02:16:31.572Z,98.79
2017-02-23T02:17:12.107Z,99.18
2017-02-23T02:17:52.642Z,99.18
2017-02-23T02:18:33.169Z,99.08
2017-02-23T02:19:13.702Z,99.27
2017-02-23T02:19:54.233Z,99.37
2017-02-23T02:20:34.775Z,99.37
2017-02-23T02:21:15.310Z,99.08
2017-02-23T02:21:55.845Z,98.99
2017-02-23T02:22:36.375Z,98.99
2017-02-23T02:23:16.909Z,98.22
2017-02-23T02:23:57.451Z,99.27
2017-02-23T02:24:37.979Z,98.32
2017-02-23T02:25:18.515Z,98.51
2017-02-23T02:25:59.049Z,98.7
2017-02-23T02:26:39.583Z,98.51
2017-02-23T02:27:20.142Z,98.79
2017-02-23T02:28:00.677Z,98.7
2017-02-23T02:28:41.206Z,98.03
2017-02-23T02:29:21.741Z,98.03
2017-02-23T02:30:02.278Z,97.75
2017-02-23T02:30:42.813Z,98.08
2017-02-23T02:31:23.353Z,97.41
2017-02-23T02:32:03.889Z,97.75
2017-02-23T02:32:44.417Z,97.51
2017-02-23T02:33:24.943Z,97.03
2017-02-23T02:34:05.479Z,97.22
2017-02-23T02:34:46.015Z,97.32
2017-02-23T02:35:26.550Z,97.32
2017-02-23T02:36:07.081Z,97.22
2017-02-23T02:36:47.613Z,96.65
2017-02-23T02:37:28.147Z,97.32
2017-02-23T02:38:08.681Z,97.22
2017-02-23T02:38:49.219Z,97.22
2017-02-23T02:39:29.759Z,96.46
2017-02-23T02:40:10.266Z,96.56
2017-02-23T02:40:50.812Z,96.27
2017-02-23T02:41:31.340Z,96.75
2017-02-23T02:42:11.877Z,96.75
2017-02-23T02:42:52.413Z,96.27
2017-02-23T02:43:32.943Z,95.98
2017-02-23T02:44:13.470Z,95.98
2017-02-23T02:44:54.000Z,96.46
2017-02-23T02:45:34.534Z,96.17
2017-02-23T02:46:15.066Z,96.27
2017-02-23T02:46:55.614Z,96.08
2017-02-23T02:47:36.144Z,95.7
2017-02-23T02:48:16.670Z,95.89
2017-02-23T02:48:57.240Z,96.75
2017-02-23T02:49:37.772Z,95.98
2017-02-23T02:50:18.309Z,96.27
2017-02-23T02:50:58.872Z,96.08
2017-02-23T02:51:39.383Z,96.08
2017-02-23T02:52:19.921Z,95.61
2017-02-23T02:53:00.450Z,95.98
2017-02-23T02:53:40.990Z,96.08
2017-02-23T02:54:21.524Z,96.17
2017-02-23T02:55:02.075Z,95.7
2017-02-23T02:55:42.605Z,95.79
2017-02-23T02:56:23.137Z,96.17
2017-02-23T02:57:03.674Z,96.08
2017-02-23T02:57:44.201Z,95.79
2017-02-23T02:58:24.736Z,95.61
2017-02-23T02:59:05.276Z,95.32
2017-02-23T02:59:45.807Z,94.93
2017-02-23T03:00:26.339Z,95.12
2017-02-23T03:01:06.877Z,95.12
2017-02-23T03:01:47.404Z,95.41
2017-02-23T03:02:27.962Z,95.03
2017-02-23T03:03:08.481Z,95.41
2017-02-23T03:03:49.009Z,95.41
2017-02-23T03:04:29.547Z,94.74
2017-02-23T03:05:10.079Z,94.37
2017-02-23T03:05:50.604Z,94.46
2017-02-23T03:06:31.134Z,94.56
2017-02-23T03:07:11.672Z,94.37
2017-02-23T03:07:52.202Z,93.98
2017-02-23T03:08:32.735Z,93.7
2017-02-23T03:09:13.257Z,93.98
2017-02-23T03:09:53.800Z,93.98
2017-02-23T03:10:34.321Z,93.32
2017-02-23T03:11:14.859Z,93.88
2017-02-23T03:11:55.417Z,93.7
2017-02-23T03:12:35.953Z,93.98
2017-02-23T03:13:16.490Z,93.6
2017-02-23T03:13:57.029Z,93.7
2017-02-23T03:14:37.563Z,93.6
2017-02-23T03:15:18.094Z,93.7
2017-02-23T03:15:58.630Z,92.65
2017-02-23T03:16:39.162Z,92.27
2017-02-23T03:17:19.696Z,93.12
2017-02-23T03:18:00.232Z,92.93
2017-02-23T03:18:40.764Z,92.93
2017-02-23T03:19:21.297Z,93.12
2017-02-23T03:20:01.829Z,93.32
2017-02-23T03:20:42.365Z,92.93
2017-02-23T03:21:22.902Z,93.22
2017-02-23T03:22:03.436Z,93.12
2017-02-23T03:22:43.968Z,93.12
2017-02-23T03:23:24.506Z,92.65
2017-02-23T03:24:05.046Z,92.74
2017-02-23T03:24:45.575Z,92.84
2017-02-23T03:25:26.107Z,92.36
2017-02-23T03:26:06.643Z,92.17
2017-02-23T03:26:47.176Z,92.27
2017-02-23T03:27:27.699Z,91.79
2017-02-23T03:28:08.234Z,91.88
2017-02-23T03:28:48.767Z,92.08
2017-02-23T03:29:29.305Z,92.17
2017-02-23T03:30:09.841Z,91.69
2017-02-23T03:30:50.380Z,92.27
2017-02-23T03:31:30.917Z,91.79
2017-02-23T03:32:11.454Z,92.17
2017-02-23T03:32:51.983Z,91.88
2017-02-23T03:33:32.519Z,91.79
2017-02-23T03:34:13.053Z,92.08
2017-02-23T03:34:53.577Z,91.88
2017-02-23T03:35:34.110Z,92.46
2017-02-23T03:36:14.644Z,91.98
2017-02-23T03:36:55.183Z,91.69
2017-02-23T03:37:35.718Z,92.17
2017-02-23T03:38:16.240Z,92.36
2017-02-23T03:38:56.800Z,92.36
2017-02-23T03:39:37.332Z,92.55
2017-02-23T03:40:17.872Z,92.08
2017-02-23T03:40:58.400Z,92.08
2017-02-23T03:41:38.937Z,91.69
2017-02-23T03:42:19.464Z,91.88
2017-02-23T03:42:59.987Z,91.6
2017-02-23T03:43:40.523Z,91.31
2017-02-23T03:44:21.059Z,91.41
2017-02-23T03:45:01.603Z,91.69
2017-02-23T03:45:42.139Z,91.31
2017-02-23T03:46:22.681Z,91.22
2017-02-23T03:47:03.213Z,91.41
2017-02-23T03:47:43.737Z,91.31
2017-02-23T03:48:24.276Z,91.22
2017-02-23T03:49:04.814Z,91.6
2017-02-23T03:49:45.342Z,91.69
2017-02-23T03:50:25.882Z,91.41
2017-02-23T03:51:06.417Z,90.84
2017-02-23T03:51:46.951Z,90.55
2017-02-23T03:52:27.487Z,90.84
2017-02-23T03:53:08.018Z,91.03
2017-02-23T03:53:48.553Z,90.74
2017-02-23T03:54:29.086Z,90.74
2017-02-23T03:55:09.620Z,91.31
2017-02-23T03:55:50.156Z,91.22
2017-02-23T03:56:30.684Z,91.69
2017-02-23T03:57:11.211Z,91.5
2017-02-23T03:57:51.751Z,91.22
2017-02-23T03:58:32.292Z,92.08
2017-02-23T03:59:12.840Z,91.5
2017-02-23T03:59:53.380Z,90.84
2017-02-23T04:00:33.908Z,90.74
2017-02-23T04:01:14.437Z,90.93
2017-02-23T04:01:54.974Z,91.13
2017-02-23T04:02:35.506Z,90.55
2017-02-23T04:03:16.040Z,91.03
2017-02-23T04:03:56.584Z,90.17
2017-02-23T04:04:37.118Z,90.36
2017-02-23T04:05:17.649Z,90.17
2017-02-23T04:05:58.177Z,90.74
2017-02-23T04:06:38.709Z,90.74
2017-02-23T04:07:19.242Z,90.74
2017-02-23T04:07:59.777Z,91.13
2017-02-23T04:08:40.308Z,91.22
2017-02-23T04:09:20.843Z,90.74
2017-02-23T04:10:01.386Z,90.74
2017-02-23T04:10:41.910Z,90.26
2017-02-23T04:11:22.445Z,90.84
2017-02-23T04:12:02.980Z,90.74
2017-02-23T04:12:43.501Z,90.74
2017-02-23T04:13:24.036Z,90.36
2017-02-23T04:14:04.562Z,90.36
2017-02-23T04:14:45.098Z,90.36
2017-02-23T04:15:25.631Z,89.69
2017-02-23T04:16:06.161Z,90.08
2017-02-23T04:16:46.702Z,90.26
2017-02-23T04:17:27.239Z,90.55
2017-02-23T04:18:07.789Z,90.36
2017-02-23T04:18:48.319Z,90.36
2017-02-23T04:19:28.862Z,90.08
2017-02-23T04:20:09.446Z,90.08
2017-02-23T04:20:49.967Z,90.17
2017-02-23T04:21:30.488Z,90.93
2017-02-23T04:22:11.031Z,90.84
2017-02-23T04:22:51.565Z,90.84
2017-02-23T04:23:32.099Z,90.74
2017-02-23T04:24:12.622Z,90.84
2017-02-23T04:24:53.155Z,90.84
2017-02-23T04:25:33.694Z,90.74
2017-02-23T04:26:14.219Z,90.93
2017-02-23T04:26:54.764Z,90.55
2017-02-23T04:27:35.280Z,90.64
2017-02-23T04:28:15.823Z,91.22
2017-02-23T04:28:56.357Z,90.74
2017-02-23T04:29:36.881Z,90.93
2017-02-23T04:30:17.428Z,91.03
2017-02-23T04:30:57.935Z,90.45
2017-02-23T04:31:38.464Z,90.93
2017-02-23T04:32:18.995Z,91.22
2017-02-23T04:32:59.533Z,90.84
2017-02-23T04:33:40.071Z,90.08
2017-02-23T04:34:20.588Z,90.55
2017-02-23T04:35:01.127Z,90.26
2017-02-23T04:35:41.666Z,90.36
2017-02-23T04:36:22.198Z,91.03
2017-02-23T04:37:02.724Z,90.93
2017-02-23T04:37:43.227Z,91.03
2017-02-23T04:38:23.768Z,90.74
2017-02-23T04:39:04.309Z,91.03
2017-02-23T04:39:44.845Z,90.93
2017-02-23T04:40:25.378Z,90.84
2017-02-23T04:41:05.905Z,90.64
2017-02-23T04:41:46.452Z,90.84
2017-02-23T04:42:26.984Z,90.74
2017-02-23T04:43:07.546Z,90.55
2017-02-23T04:43:48.063Z,89.69
2017-02-23T04:44:28.596Z,89.69
2017-02-23T04:45:09.118Z,90.64
2017-02-23T04:45:49.639Z,90.08
2017-02-23T04:46:30.174Z,89.89
2017-02-23T04:47:10.715Z,89.89
2017-02-23T04:47:51.250Z,89.89
2017-02-23T04:48:31.781Z,90.08
2017-02-23T04:49:12.313Z,90.55
2017-02-23T04:49:52.849Z,90.26
2017-02-23T04:50:33.387Z,90.74
2017-02-23T04:51:13.916Z,90.45
2017-02-23T04:51:54.456Z,89.89
2017-02-23T04:52:34.990Z,90.26
2017-02-23T04:53:15.554Z,89.89
2017-02-23T04:53:56.087Z,89.89
2017-02-23T04:54:36.620Z,90.08
2017-02-23T04:55:17.156Z,89.89
2017-02-23T04:55:57.695Z,90.17
2017-02-23T04:56:38.236Z,89.69
2017-02-23T04:57:18.777Z,90.08
2017-02-23T04:57:59.325Z,89.98
2017-02-23T04:58:39.842Z,90.08
2017-02-23T04:59:20.376Z,89.69
2017-02-23T05:00:00.938Z,89.89
2017-02-23T05:00:41.449Z,89.89
2017-02-23T05:01:21.982Z,89.89
2017-02-23T05:02:02.572Z,89.79
2017-02-23T05:02:43.152Z,89.89
2017-02-23T05:03:23.703Z,90.08
2017-02-23T05:04:04.216Z,89.98
2017-02-23T05:04:44.745Z,89.89
2017-02-23T05:05:25.296Z,89.69
2017-02-23T05:06:05.829Z,90.55
2017-02-23T05:06:46.357Z,89.89
2017-02-23T05:07:26.920Z,90.08
2017-02-23T05:08:07.471Z,90.08
2017-02-23T05:08:48.027Z,90.08
2017-02-23T05:09:28.553Z,89.79
2017-02-23T05:10:09.096Z,89.89
2017-02-23T05:10:49.617Z,90.17
2017-02-23T05:11:30.142Z,89.79
2017-02-23T05:12:10.682Z,89.6
2017-02-23T05:12:51.205Z,89.5
2017-02-23T05:13:31.735Z,89.98
2017-02-23T05:14:12.270Z,89.79
2017-02-23T05:14:52.812Z,89.98
2017-02-23T05:15:33.361Z,89.03
2017-02-23T05:16:13.899Z,89.22
2017-02-23T05:16:54.434Z,89.12
2017-02-23T05:17:34.957Z,89.22
2017-02-23T05:18:15.514Z,89.22
2017-02-23T05:18:56.013Z,88.84
2017-02-23T05:19:36.549Z,89.03
2017-02-23T05:20:17.084Z,88.64
2017-02-23T05:20:57.634Z,88.74
2017-02-23T05:21:38.195Z,88.07
2017-02-23T05:22:18.741Z,88.64
2017-02-23T05:22:59.289Z,88.26
2017-02-23T05:23:39.825Z,88.55
2017-02-23T05:24:20.360Z,88.36
2017-02-23T05:25:00.894Z,88.55
2017-02-23T05:25:41.430Z,88.55
2017-02-23T05:26:21.972Z,88.93
2017-02-23T05:27:02.655Z,88.74
2017-02-23T05:27:43.202Z,88.64
2017-02-23T05:28:23.758Z,88.26
2017-02-23T05:29:04.301Z,88.17
2017-02-23T05:29:44.836Z,89.03
2017-02-23T05:30:25.399Z,89.22
2017-02-23T05:31:05.929Z,89.22
2017-02-23T05:31:46.461Z,89.03
2017-02-23T05:32:26.987Z,89.31
2017-02-23T05:33:07.544Z,89.12
2017-02-23T05:33:48.068Z,88.93
2017-02-23T05:34:28.605Z,89.03
2017-02-23T05:35:09.125Z,89.22
2017-02-23T05:35:49.662Z,89.89
2017-02-23T05:36:30.217Z,89.89
2017-02-23T05:37:10.732Z,89.98
2017-02-23T05:37:51.264Z,89.84
2017-02-23T05:38:31.776Z,89.75
2017-02-23T05:39:12.312Z,90.5
2017-02-23T05:39:52.812Z,90.45
2017-02-23T05:40:33.346Z,90.31
2017-02-23T05:41:13.863Z,90.22
2017-02-23T05:41:54.404Z,90.03
2017-02-23T05:42:34.941Z,90.17
2017-02-23T05:43:15.687Z,91.03
2017-02-23T05:45:04.634Z,90.41
2017-02-23T05:45:45.146Z,91.22
2017-02-23T05:46:25.654Z,91.03
2017-02-23T05:47:06.187Z,90.89
2017-02-23T05:47:46.706Z,91.08
2017-02-23T05:48:27.240Z,90.7
2017-02-23T05:49:07.756Z,90.7
2017-02-23T05:49:48.293Z,90.98
2017-02-23T05:50:28.820Z,90.89
2017-02-23T05:51:09.352Z,90.55
2017-02-23T05:51:49.888Z,90.74
2017-02-23T05:52:30.425Z,90.89
2017-02-23T05:53:10.949Z,90.89
2017-02-23T05:53:51.477Z,90.89
2017-02-23T05:54:31.995Z,90.6
2017-02-23T05:55:12.503Z,90.41
2017-02-23T05:55:53.042Z,90.6
2017-02-23T05:56:33.564Z,90.89
2017-02-23T05:57:14.101Z,90.5
2017-02-23T05:57:54.624Z,90.79
2017-02-23T05:58:35.146Z,90.6
2017-02-23T05:59:15.662Z,90.79
2017-02-23T05:59:56.171Z,90.41
2017-02-23T06:00:36.697Z,90.22
2017-02-23T06:01:17.243Z,89.55
2017-02-23T06:01:57.892Z,90.12
2017-02-23T06:02:38.661Z,89.69
2017-02-23T06:03:19.194Z,90.5
2017-02-23T06:03:59.778Z,90.31
2017-02-23T06:04:40.307Z,90.41
2017-02-23T06:05:20.844Z,90.31
2017-02-23T06:06:01.364Z,90.98
2017-02-23T06:06:41.926Z,90.89
2017-02-23T06:07:22.469Z,90.31
2017-02-23T06:08:03.201Z,90.03
2017-02-23T06:08:43.743Z,89.65
2017-02-23T06:09:24.264Z,90.03
2017-02-23T06:10:04.775Z,90.12
2017-02-23T06:10:45.466Z,90.31
2017-02-23T06:11:26.010Z,90.22
2017-02-23T06:12:06.469Z,89.65
2017-02-23T06:12:47.061Z,89.84
2017-02-23T06:13:27.553Z,89.65
2017-02-23T06:14:08.085Z,89.84
2017-02-23T06:14:48.660Z,90.12
2017-02-23T06:15:29.324Z,89.65
2017-02-23T06:16:09.861Z,89.84
2017-02-23T06:16:50.427Z,90.03
2017-02-23T06:17:30.957Z,89.94
2017-02-23T06:18:11.489Z,89.94
2017-02-23T06:18:52.001Z,90.03
2017-02-23T06:19:32.477Z,89.84
2017-02-23T06:20:13.014Z,89.46
2017-02-23T06:20:53.535Z,89.46
2017-02-23T06:21:34.086Z,89.46
2017-02-23T06:22:14.625Z,89.84
2017-02-23T06:22:55.171Z,90.03
2017-02-23T06:23:35.694Z,89.46
2017-02-23T06:24:16.241Z,89.07
2017-02-23T06:24:56.777Z,89.17
2017-02-23T06:25:37.316Z,89.07
2017-02-23T06:26:17.837Z,89.36
2017-02-23T06:26:58.384Z,89.07
2017-02-23T06:27:38.904Z,89.17
2017-02-23T06:28:19.418Z,88.98
2017-02-23T06:28:59.944Z,89.07
2017-02-23T06:29:40.468Z,89.26
2017-02-23T06:30:21.004Z,89.36
2017-02-23T06:31:01.545Z,89.26
2017-02-23T06:31:42.073Z,90.03
2017-02-23T06:32:22.594Z,89.65
2017-02-23T06:33:03.121Z,89.65
2017-02-23T06:33:43.675Z,89.75
2017-02-23T06:34:24.201Z,89.75
2017-02-23T06:35:04.736Z,89.46
2017-02-23T06:35:45.269Z,89.84
2017-02-23T06:36:25.819Z,89.94
2017-02-23T06:37:06.374Z,89.94
2017-02-23T06:37:46.881Z,89.65
2017-02-23T06:38:27.399Z,89.07
2017-02-23T06:39:07.947Z,89.84
2017-02-23T06:39:48.442Z,90.03
2017-02-23T06:40:28.981Z,89.65
2017-02-23T06:41:09.499Z,89.46
2017-02-23T06:41:50.039Z,89.55
2017-02-23T06:42:30.576Z,89.07
2017-02-23T06:43:11.131Z,89.17
2017-02-23T06:43:51.645Z,89.26
2017-02-23T06:44:32.205Z,89.07
2017-02-23T06:45:12.745Z,89.17
2017-02-23T06:45:53.277Z,89.07
2017-02-23T06:46:33.810Z,88.89
2017-02-23T06:47:14.359Z,88.98
2017-02-23T06:47:54.905Z,88.98
2017-02-23T06:48:35.416Z,88.98
2017-02-23T06:49:15.975Z,89.07
2017-02-23T06:49:56.491Z,88.79
2017-02-23T06:50:37.021Z,89.36
2017-02-23T06:51:17.559Z,89.26
2017-02-23T06:51:58.096Z,89.94
2017-02-23T06:52:38.718Z,89.94
2017-02-23T06:53:19.492Z,89.75
2017-02-23T06:54:00.025Z,89.46
2017-02-23T06:54:40.551Z,89.46
2017-02-23T06:55:21.142Z,89.46
2017-02-23T06:56:01.618Z,90.22
2017-02-23T06:56:42.155Z,89.65
2017-02-23T06:57:22.667Z,89.94
2017-02-23T06:58:03.183Z,89.55
2017-02-23T06:58:43.711Z,90.03
2017-02-23T06:59:24.253Z,90.03
2017-02-23T07:00:04.789Z,89.94
2017-02-23T07:00:45.309Z,89.94
2017-02-23T07:01:25.845Z,89.94
2017-02-23T07:02:06.380Z,89.84
2017-02-23T07:02:46.968Z,89.46
2017-02-23T07:03:27.515Z,89.94
2017-02-23T07:04:08.054Z,88.98
2017-02-23T07:04:48.584Z,89.17
2017-02-23T07:05:29.127Z,89.26
2017-02-23T07:06:09.661Z,88.98
2017-02-23T07:06:50.199Z,87.93
2017-02-23T07:07:30.741Z,88.22
2017-02-23T07:08:11.280Z,88.12
2017-02-23T07:08:51.800Z,88.31
2017-02-23T07:09:32.331Z,88.89
2017-02-23T07:10:12.871Z,88.89
2017-02-23T07:10:53.405Z,89.17
2017-02-23T07:11:33.941Z,89.17
2017-02-23T07:12:14.473Z,89.17
2017-02-23T07:12:55.054Z,89.26
2017-02-23T07:13:35.594Z,89.17
2017-02-23T07:14:16.135Z,88.98
2017-02-23T07:14:56.670Z,89.26
2017-02-23T07:15:37.211Z,88.7
2017-02-23T07:16:17.741Z,88.98
2017-02-23T07:16:58.279Z,89.46
2017-02-23T07:17:38.821Z,89.07
2017-02-23T07:18:19.349Z,89.07
2017-02-23T07:18:59.879Z,88.79
2017-02-23T07:19:40.407Z,88.79
2017-02-23T07:20:20.945Z,89.26
2017-02-23T07:21:01.481Z,88.98
2017-02-23T07:21:42.024Z,89.17
2017-02-23T07:22:22.555Z,88.98
2017-02-23T07:23:03.084Z,89.17
2017-02-23T07:23:43.622Z,89.26
2017-02-23T07:24:24.162Z,88.89
2017-02-23T07:25:04.689Z,88.98
2017-02-23T07:25:45.227Z,88.89
2017-02-23T07:26:25.768Z,88.98
2017-02-23T07:27:08.295Z,88.98
2017-02-23T07:27:48.832Z,89.07
2017-02-23T07:28:29.370Z,89.07
2017-02-23T07:29:09.902Z,88.98
2017-02-23T07:29:50.433Z,88.98
2017-02-23T07:30:30.968Z,89.17
2017-02-23T07:31:11.506Z,89.07
2017-02-23T07:31:52.041Z,89.17
2017-02-23T07:32:32.579Z,89.26
2017-02-23T07:33:13.115Z,88.98
2017-02-23T07:33:53.648Z,88.98
2017-02-23T07:34:34.182Z,89.17
2017-02-23T07:35:14.718Z,89.17
2017-02-23T07:35:55.250Z,89.17
2017-02-23T07:36:35.787Z,89.17
2017-02-23T07:37:16.322Z,88.89
2017-02-23T07:37:56.859Z,89.26
2017-02-23T07:38:37.396Z,89.17
2017-02-23T07:39:17.933Z,89.17
2017-02-23T07:39:58.458Z,89.17
2017-02-23T07:40:38.992Z,88.98
2017-02-23T07:41:19.527Z,89.07
2017-02-23T07:42:00.059Z,88.98
2017-02-23T07:42:40.593Z,88.98
2017-02-23T07:43:21.130Z,89.36
2017-02-23T07:44:01.665Z,89.94
2017-02-23T07:44:42.203Z,90.03
2017-02-23T07:45:22.729Z,89.55
2017-02-23T07:46:03.264Z,89.55
2017-02-23T07:46:43.798Z,89.65
2017-02-23T07:47:24.332Z,89.46
2017-02-23T07:48:04.867Z,90.03
2017-02-23T07:48:45.403Z,89.94
2017-02-23T07:49:25.939Z,89.55
2017-02-23T07:50:06.482Z,89.46
2017-02-23T07:50:47.019Z,90.03
2017-02-23T07:51:27.555Z,90.03
2017-02-23T07:52:08.079Z,90.03
2017-02-23T07:52:48.622Z,90.03
2017-02-23T07:53:29.163Z,89.94
2017-02-23T07:54:09.698Z,89.65
2017-02-23T07:54:50.235Z,89.84
2017-02-23T07:55:30.755Z,89.65
2017-02-23T07:56:11.295Z,90.41
2017-02-23T07:56:51.832Z,90.5
2017-02-23T07:57:32.369Z,90.5
2017-02-23T07:58:12.899Z,90.41
2017-02-23T07:58:53.438Z,90.5
2017-02-23T07:59:33.974Z,90.12
2017-02-23T08:00:14.505Z,90.41
2017-02-23T08:00:55.039Z,89.65
2017-02-23T08:01:35.573Z,89.55
2017-02-23T08:02:16.102Z,89.55
2017-02-23T08:02:56.635Z,89.65
2017-02-23T08:03:37.163Z,89.84
2017-02-23T08:04:17.690Z,90.03
2017-02-23T08:04:58.243Z,90.22
2017-02-23T08:05:38.773Z,89.84
2017-02-23T08:06:19.311Z,89.84
2017-02-23T08:06:59.853Z,89.94
2017-02-23T08:07:40.384Z,89.94
2017-02-23T08:08:20.906Z,90.03
2017-02-23T08:09:01.447Z,89.94
2017-02-23T08:09:41.974Z,90.03
2017-02-23T08:10:22.514Z,89.94
2017-02-23T08:11:03.036Z,89.84
2017-02-23T08:11:43.580Z,89.94
2017-02-23T08:12:24.105Z,90.03
2017-02-23T08:13:04.643Z,90.03
2017-02-23T08:13:45.179Z,89.46
2017-02-23T08:14:25.717Z,89.46
2017-02-23T08:15:06.260Z,89.84
2017-02-23T08:15:46.791Z,89.65
2017-02-23T08:16:27.331Z,89.75
2017-02-23T08:17:07.867Z,90.03
2017-02-23T08:17:48.397Z,89.46
2017-02-23T08:18:28.934Z,89.75
2017-02-23T08:19:09.471Z,89.55
2017-02-23T08:19:50.003Z,89.46
2017-02-23T08:20:30.540Z,89.65
2017-02-23T08:21:11.081Z,89.65
2017-02-23T08:21:51.619Z,89.65
2017-02-23T08:22:32.150Z,89.65
2017-02-23T08:23:12.687Z,90.12
2017-02-23T08:23:53.222Z,90.12
2017-02-23T08:24:33.762Z,90.03
2017-02-23T08:25:14.301Z,89.84
2017-02-23T08:25:54.833Z,89.75
2017-02-23T08:26:35.370Z,89.65
2017-02-23T08:27:15.906Z,90.03
2017-02-23T08:27:56.443Z,89.65
2017-02-23T08:28:36.982Z,89.75
2017-02-23T08:29:17.545Z,89.94
2017-02-23T08:29:58.031Z,89.17
2017-02-23T08:30:38.561Z,89.17
2017-02-23T08:31:19.095Z,89.94
2017-02-23T08:31:59.636Z,89.94
2017-02-23T08:32:40.191Z,89.46
2017-02-23T08:33:20.724Z,88.79
2017-02-23T08:34:01.260Z,89.36
2017-02-23T08:34:41.803Z,88.98
2017-02-23T08:35:22.344Z,88.98
2017-02-23T08:36:02.880Z,89.07
2017-02-23T08:36:43.424Z,89.26
2017-02-23T08:37:23.987Z,89.26
2017-02-23T08:38:04.519Z,89.36
2017-02-23T08:38:45.071Z,89.26
2017-02-23T08:39:25.602Z,89.36
2017-02-23T08:40:06.139Z,88.98
2017-02-23T08:40:46.672Z,89.13
2017-02-23T08:41:27.212Z,89.17
2017-02-23T08:42:07.751Z,89.07
2017-02-23T08:42:48.285Z,88.75
2017-02-23T08:43:28.820Z,88.93
2017-02-23T08:44:09.356Z,88.98
2017-02-23T08:44:49.896Z,88.84
2017-02-23T08:45:30.434Z,88.93
2017-02-23T08:46:10.975Z,89.22
2017-02-23T08:46:51.512Z,89.13
2017-02-23T08:47:32.042Z,89.13
2017-02-23T08:48:12.572Z,88.93
2017-02-23T08:48:53.100Z,88.84
2017-02-23T08:49:33.635Z,88.84
2017-02-23T08:50:14.167Z,88.84
2017-02-23T08:50:54.697Z,89.22
2017-02-23T08:51:35.252Z,89.22
2017-02-23T08:52:15.780Z,89.22
2017-02-23T08:52:56.331Z,89.22
2017-02-23T08:53:36.858Z,88.84
2017-02-23T08:54:17.385Z,88.93
2017-02-23T08:54:57.921Z,88.65
2017-02-23T08:55:38.458Z,88.84
2017-02-23T08:56:18.984Z,88.84
2017-02-23T08:56:59.529Z,88.93
2017-02-23T08:57:40.079Z,89.03
2017-02-23T08:58:20.612Z,89.22
2017-02-23T08:59:01.144Z,89.22
2017-02-23T08:59:41.658Z,89.13
2017-02-23T09:00:22.194Z,89.13
2017-02-23T09:01:02.731Z,89.13
2017-02-23T09:01:43.264Z,88.93
2017-02-23T09:02:23.788Z,88.93
2017-02-23T09:03:04.327Z,89.13
2017-02-23T09:03:44.863Z,89.22
2017-02-23T09:04:25.396Z,89.22
2017-02-23T09:05:05.927Z,88.93
2017-02-23T09:05:46.461Z,88.93
2017-02-23T09:06:26.993Z,89.22
2017-02-23T09:07:07.531Z,89.22
2017-02-23T09:07:48.065Z,88.75
2017-02-23T09:08:28.593Z,89.13
2017-02-23T09:09:09.149Z,88.93
2017-02-23T09:09:49.664Z,89.22
2017-02-23T09:10:30.203Z,88.93
2017-02-23T09:11:10.743Z,89.13
2017-02-23T09:11:51.281Z,89.22
2017-02-23T09:12:31.812Z,88.75
2017-02-23T09:13:12.343Z,88.65
2017-02-23T09:13:52.888Z,88.56
2017-02-23T09:14:33.419Z,88.37
2017-02-23T09:15:13.957Z,88.46
2017-02-23T09:15:54.503Z,88.56
2017-02-23T09:16:35.041Z,88.56
2017-02-23T09:17:15.575Z,88.18
2017-02-23T09:17:56.111Z,88.37
2017-02-23T09:18:36.646Z,88.46
2017-02-23T09:19:17.183Z,88.46
2017-02-23T09:19:57.721Z,88.18
2017-02-23T09:20:38.249Z,88.37
2017-02-23T09:21:18.771Z,88.56
2017-02-23T09:21:59.296Z,88.46
2017-02-23T09:22:39.830Z,88.56